Terminal Aerodrome Forecast
Issued by NWS

Home | Current Version | Previous Version | Graphics & Text | Print | Product List | Glossary On
Versions: 1 2 3 4 5 6 7 8 9 10 11 12 13 14 15 16 17 18 19 20
000
FTUS43 KABR 231720
TAFMBG
TAF
KMBG 231720Z 2318/2418 01016G25KT P6SM BKN040 OVC100
     FM240000 02011KT P6SM BKN100
     FM240100 03009KT P6SM SCT130
     FM240200 04005KT P6SM SKC
     FM241500 17008KT P6SM SKC=

USA.gov is the U.S. government's official web portal to all federal, state and local government web resources and services.